sensor_id;sensor_type;location;lat;lon;timestamp;temperature;humidity
24049;DHT22;12250;50.956;4.746;2024-02-14T00:01:17;10.40;99.90
24049;DHT22;12250;50.956;4.746;2024-02-14T00:03:44;10.50;99.90
24049;DHT22;12250;50.956;4.746;2024-02-14T00:06:09;10.50;99.90
24049;DHT22;12250;50.956;4.746;2024-02-14T00:08:37;10.60;99.90
24049;DHT22;12250;50.956;4.746;2024-02-14T00:11:03;10.60;99.90
24049;DHT22;12250;50.956;4.746;2024-02-14T00:13:29;10.50;99.90
24049;DHT22;12250;50.956;4.746;2024-02-14T00:15:55;10.50;99.90
24049;DHT22;12250;50.956;4.746;2024-02-14T00:18:22;10.60;99.90
24049;DHT22;12250;50.956;4.746;2024-02-14T00:20:48;10.50;99.90
24049;DHT22;12250;50.956;4.746;2024-02-14T00:23:14;10.60;99.90
24049;DHT22;12250;50.956;4.746;2024-02-14T00:25:39;10.60;99.90
24049;DHT22;12250;50.956;4.746;2024-02-14T00:28:06;10.70;99.90
24049;DHT22;12250;50.956;4.746;2024-02-14T00:30:31;10.70;99.90
24049;DHT22;12250;50.956;4.746;2024-02-14T00:32:57;10.70;99.90
24049;DHT22;12250;50.956;4.746;2024-02-14T00:35:23;10.70;99.90
24049;DHT22;12250;50.956;4.746;2024-02-14T00:37:49;10.70;99.90
24049;DHT22;12250;50.956;4.746;2024-02-14T00:40:15;10.70;99.90
24049;DHT22;12250;50.956;4.746;2024-02-14T00:42:40;10.80;99.90
24049;DHT22;12250;50.956;4.746;2024-02-14T00:45:07;10.80;99.90
24049;DHT22;12250;50.956;4.746;2024-02-14T00:47:35;10.80;99.90
24049;DHT22;12250;50.956;4.746;2024-02-14T00:50:02;10.80;99.90
24049;DHT22;12250;50.956;4.746;2024-02-14T00:52:28;10.80;99.90
24049;DHT22;12250;50.956;4.746;2024-02-14T00:54:54;10.80;99.90
24049;DHT22;12250;50.956;4.746;2024-02-14T00:57:20;10.80;99.90
24049;DHT22;12250;50.956;4.746;2024-02-14T00:59:46;10.90;99.90
24049;DHT22;12250;50.956;4.746;2024-02-14T01:02:12;10.90;99.90
24049;DHT22;12250;50.956;4.746;2024-02-14T01:04:37;11.00;99.90
24049;DHT22;12250;50.956;4.746;2024-02-14T01:07:03;10.90;99.90
24049;DHT22;12250;50.956;4.746;2024-02-14T01:09:29;11.00;99.90
24049;DHT22;12250;50.956;4.746;2024-02-14T01:11:55;11.00;99.90
24049;DHT22;12250;50.956;4.746;2024-02-14T01:14:21;10.90;99.90
24049;DHT22;12250;50.956;4.746;2024-02-14T01:16:47;11.00;99.90
24049;DHT22;12250;50.956;4.746;2024-02-14T01:19:13;10.90;99.90
24049;DHT22;12250;50.956;4.746;2024-02-14T01:21:39;10.90;99.90
24049;DHT22;12250;50.956;4.746;2024-02-14T01:24:05;10.90;99.90
24049;DHT22;12250;50.956;4.746;2024-02-14T01:26:31;11.00;99.90
24049;DHT22;12250;50.956;4.746;2024-02-14T01:28:58;11.00;99.90
24049;DHT22;12250;50.956;4.746;2024-02-14T01:31:26;10.90;99.90
24049;DHT22;12250;50.956;4.746;2024-02-14T01:33:52;11.00;99.90
24049;DHT22;12250;50.956;4.746;2024-02-14T01:36:18;11.00;99.90
24049;DHT22;12250;50.956;4.746;2024-02-14T01:38:44;11.10;99.90
24049;DHT22;12250;50.956;4.746;2024-02-14T01:41:10;11.00;99.90
24049;DHT22;12250;50.956;4.746;2024-02-14T01:43:36;11.00;99.90
24049;DHT22;12250;50.956;4.746;2024-02-14T01:46:05;11.00;99.90
24049;DHT22;12250;50.956;4.746;2024-02-14T01:48:31;11.00;99.90
24049;DHT22;12250;50.956;4.746;2024-02-14T01:50:58;11.00;99.90
24049;DHT22;12250;50.956;4.746;2024-02-14T01:53:25;11.00;99.90
24049;DHT22;12250;50.956;4.746;2024-02-14T01:55:52;11.00;99.90
24049;DHT22;12250;50.956;4.746;2024-02-14T01:58:18;11.10;99.90
24049;DHT22;12250;50.956;4.746;2024-02-14T02:00:44;11.00;99.90
24049;DHT22;12250;50.956;4.746;2024-02-14T02:03:11;11.00;99.90
24049;DHT22;12250;50.956;4.746;2024-02-14T02:05:38;10.80;99.90
24049;DHT22;12250;50.956;4.746;2024-02-14T02:08:04;10.90;99.90
24049;DHT22;12250;50.956;4.746;2024-02-14T02:10:29;10.90;99.90
24049;DHT22;12250;50.956;4.746;2024-02-14T02:12:59;10.80;99.90
24049;DHT22;12250;50.956;4.746;2024-02-14T02:15:25;10.70;99.90
24049;DHT22;12250;50.956;4.746;2024-02-14T02:17:52;10.70;99.90
24049;DHT22;12250;50.956;4.746;2024-02-14T02:20:18;10.80;99.90
24049;DHT22;12250;50.956;4.746;2024-02-14T02:22:47;10.80;99.90
24049;DHT22;12250;50.956;4.746;2024-02-14T02:25:13;10.70;99.90
24049;DHT22;12250;50.956;4.746;2024-02-14T02:27:39;10.70;99.90
24049;DHT22;12250;50.956;4.746;2024-02-14T02:30:06;10.70;99.90
24049;DHT22;12250;50.956;4.746;2024-02-14T02:32:32;10.60;99.90
24049;DHT22;12250;50.956;4.746;2024-02-14T02:34:58;10.60;99.90
24049;DHT22;12250;50.956;4.746;2024-02-14T02:37:25;10.60;99.90
24049;DHT22;12250;50.956;4.746;2024-02-14T02:39:51;10.70;99.90
24049;DHT22;12250;50.956;4.746;2024-02-14T02:42:17;10.70;99.90
24049;DHT22;12250;50.956;4.746;2024-02-14T02:44:46;10.70;99.90
24049;DHT22;12250;50.956;4.746;2024-02-14T02:47:12;10.80;99.90
24049;DHT22;12250;50.956;4.746;2024-02-14T02:49:38;10.80;99.90
24049;DHT22;12250;50.956;4.746;2024-02-14T02:52:04;10.80;99.90
24049;DHT22;12250;50.956;4.746;2024-02-14T02:54:29;10.80;99.90
24049;DHT22;12250;50.956;4.746;2024-02-14T02:56:55;10.80;99.90
24049;DHT22;12250;50.956;4.746;2024-02-14T02:59:21;10.80;99.90
24049;DHT22;12250;50.956;4.746;2024-02-14T03:01:47;10.80;99.90
24049;DHT22;12250;50.956;4.746;2024-02-14T03:04:15;10.80;99.90
24049;DHT22;12250;50.956;4.746;2024-02-14T03:06:41;10.80;99.90
24049;DHT22;12250;50.956;4.746;2024-02-14T03:09:08;10.80;99.90
24049;DHT22;12250;50.956;4.746;2024-02-14T03:11:34;10.80;99.90
24049;DHT22;12250;50.956;4.746;2024-02-14T03:14:01;10.80;99.90
24049;DHT22;12250;50.956;4.746;2024-02-14T03:16:27;10.70;99.90
24049;DHT22;12250;50.956;4.746;2024-02-14T03:18:54;10.80;99.90
24049;DHT22;12250;50.956;4.746;2024-02-14T03:21:20;10.80;99.90
24049;DHT22;12250;50.956;4.746;2024-02-14T03:23:46;10.80;99.90
24049;DHT22;12250;50.956;4.746;2024-02-14T03:26:11;10.70;99.90
24049;DHT22;12250;50.956;4.746;2024-02-14T03:28:37;10.80;99.90
24049;DHT22;12250;50.956;4.746;2024-02-14T03:31:03;10.70;99.90
24049;DHT22;12250;50.956;4.746;2024-02-14T03:33:29;10.70;99.90
24049;DHT22;12250;50.956;4.746;2024-02-14T03:35:55;10.70;99.90
24049;DHT22;12250;50.956;4.746;2024-02-14T03:38:27;10.70;99.90
24049;DHT22;12250;50.956;4.746;2024-02-14T03:40:54;10.70;99.90
24049;DHT22;12250;50.956;4.746;2024-02-14T03:43:20;10.70;99.90
24049;DHT22;12250;50.956;4.746;2024-02-14T03:45:47;10.70;99.90
24049;DHT22;12250;50.956;4.746;2024-02-14T03:48:13;10.70;99.90
24049;DHT22;12250;50.956;4.746;2024-02-14T03:50:39;10.70;99.90
24049;DHT22;12250;50.956;4.746;2024-02-14T03:53:05;10.70;99.90
24049;DHT22;12250;50.956;4.746;2024-02-14T03:55:31;10.60;99.90
24049;DHT22;12250;50.956;4.746;2024-02-14T03:57:56;10.60;99.90
24049;DHT22;12250;50.956;4.746;2024-02-14T04:00:22;10.50;99.90
24049;DHT22;12250;50.956;4.746;2024-02-14T04:02:48;10.50;99.90
24049;DHT22;12250;50.956;4.746;2024-02-14T04:05:15;10.50;99.90
24049;DHT22;12250;50.956;4.746;2024-02-14T04:07:40;10.50;99.90
24049;DHT22;12250;50.956;4.746;2024-02-14T04:10:09;10.50;99.90
24049;DHT22;12250;50.956;4.746;2024-02-14T04:12:35;10.60;99.90
24049;DHT22;12250;50.956;4.746;2024-02-14T04:15:01;10.60;99.90
24049;DHT22;12250;50.956;4.746;2024-02-14T04:17:26;10.50;99.90
24049;DHT22;12250;50.956;4.746;2024-02-14T04:19:52;10.60;99.90
24049;DHT22;12250;50.956;4.746;2024-02-14T04:22:18;10.60;99.90
24049;DHT22;12250;50.956;4.746;2024-02-14T04:24:44;10.60;99.90
24049;DHT22;12250;50.956;4.746;2024-02-14T04:27:10;10.60;99.90
24049;DHT22;12250;50.956;4.746;2024-02-14T04:29:35;10.70;99.90
24049;DHT22;12250;50.956;4.746;2024-02-14T04:32:02;10.70;99.90
24049;DHT22;12250;50.956;4.746;2024-02-14T04:34:28;10.70;99.90
24049;DHT22;12250;50.956;4.746;2024-02-14T04:36:54;10.70;99.90
24049;DHT22;12250;50.956;4.746;2024-02-14T04:39:19;10.80;99.90
24049;DHT22;12250;50.956;4.746;2024-02-14T04:41:45;10.90;99.90
24049;DHT22;12250;50.956;4.746;2024-02-14T04:44:11;10.70;99.90
24049;DHT22;12250;50.956;4.746;2024-02-14T04:46:36;10.80;99.90
24049;DHT22;12250;50.956;4.746;2024-02-14T04:49:03;10.80;99.90
24049;DHT22;12250;50.956;4.746;2024-02-14T04:51:30;10.80;99.90
24049;DHT22;12250;50.956;4.746;2024-02-14T04:53:56;10.80;99.90
24049;DHT22;12250;50.956;4.746;2024-02-14T04:56:25;10.80;99.90
24049;DHT22;12250;50.956;4.746;2024-02-14T04:58:55;10.80;99.90
24049;DHT22;12250;50.956;4.746;2024-02-14T05:01:21;10.80;99.90
24049;DHT22;12250;50.956;4.746;2024-02-14T05:03:47;10.80;99.90
24049;DHT22;12250;50.956;4.746;2024-02-14T05:06:14;10.80;99.90
24049;DHT22;12250;50.956;4.746;2024-02-14T05:08:39;10.80;99.90
24049;DHT22;12250;50.956;4.746;2024-02-14T05:11:05;10.80;99.90
24049;DHT22;12250;50.956;4.746;2024-02-14T05:13:31;10.90;99.90
24049;DHT22;12250;50.956;4.746;2024-02-14T05:15:56;10.90;99.90
24049;DHT22;12250;50.956;4.746;2024-02-14T05:18:22;10.90;99.90
24049;DHT22;12250;50.956;4.746;2024-02-14T05:20:48;10.90;99.90
24049;DHT22;12250;50.956;4.746;2024-02-14T05:23:15;10.90;99.90
24049;DHT22;12250;50.956;4.746;2024-02-14T05:25:43;10.90;99.90
24049;DHT22;12250;50.956;4.746;2024-02-14T05:28:09;11.00;99.90
24049;DHT22;12250;50.956;4.746;2024-02-14T05:30:42;11.00;99.90
24049;DHT22;12250;50.956;4.746;2024-02-14T05:33:08;11.00;99.90
24049;DHT22;12250;50.956;4.746;2024-02-14T05:35:33;11.00;99.90
24049;DHT22;12250;50.956;4.746;2024-02-14T05:37:59;11.00;99.90
24049;DHT22;12250;50.956;4.746;2024-02-14T05:40:24;10.90;99.90
24049;DHT22;12250;50.956;4.746;2024-02-14T05:42:51;11.00;99.90
24049;DHT22;12250;50.956;4.746;2024-02-14T05:45:17;11.00;99.90
24049;DHT22;12250;50.956;4.746;2024-02-14T05:47:43;11.00;99.90
24049;DHT22;12250;50.956;4.746;2024-02-14T05:50:09;11.00;99.90
24049;DHT22;12250;50.956;4.746;2024-02-14T05:52:37;11.00;99.90
24049;DHT22;12250;50.956;4.746;2024-02-14T05:55:03;11.10;99.90
24049;DHT22;12250;50.956;4.746;2024-02-14T05:57:29;11.10;99.90
24049;DHT22;12250;50.956;4.746;2024-02-14T05:59:54;11.10;99.90
24049;DHT22;12250;50.956;4.746;2024-02-14T06:02:21;11.00;99.90
24049;DHT22;12250;50.956;4.746;2024-02-14T06:04:47;11.10;99.90
24049;DHT22;12250;50.956;4.746;2024-02-14T06:07:12;11.20;99.90
24049;DHT22;12250;50.956;4.746;2024-02-14T06:09:38;11.10;99.90
24049;DHT22;12250;50.956;4.746;2024-02-14T06:12:04;11.10;99.90
24049;DHT22;12250;50.956;4.746;2024-02-14T06:14:30;11.10;99.90
24049;DHT22;12250;50.956;4.746;2024-02-14T06:16:59;11.20;99.90
24049;DHT22;12250;50.956;4.746;2024-02-14T06:19:25;11.20;99.90
24049;DHT22;12250;50.956;4.746;2024-02-14T06:21:50;11.20;99.90
24049;DHT22;12250;50.956;4.746;2024-02-14T06:24:16;11.20;99.90
24049;DHT22;12250;50.956;4.746;2024-02-14T06:26:43;11.20;99.90
24049;DHT22;12250;50.956;4.746;2024-02-14T06:29:08;11.20;99.90
24049;DHT22;12250;50.956;4.746;2024-02-14T06:31:34;11.20;99.90
24049;DHT22;12250;50.956;4.746;2024-02-14T06:34:00;11.30;99.90
24049;DHT22;12250;50.956;4.746;2024-02-14T06:36:25;11.30;99.90
24049;DHT22;12250;50.956;4.746;2024-02-14T06:38:52;11.30;99.90
24049;DHT22;12250;50.956;4.746;2024-02-14T06:41:18;11.30;99.90
24049;DHT22;12250;50.956;4.746;2024-02-14T06:43:46;11.30;99.90
24049;DHT22;12250;50.956;4.746;2024-02-14T06:46:11;11.30;99.90
24049;DHT22;12250;50.956;4.746;2024-02-14T06:48:37;11.40;99.90
24049;DHT22;12250;50.956;4.746;2024-02-14T06:51:03;11.40;99.90
24049;DHT22;12250;50.956;4.746;2024-02-14T06:53:28;11.40;99.90
24049;DHT22;12250;50.956;4.746;2024-02-14T06:55:55;11.50;99.90
24049;DHT22;12250;50.956;4.746;2024-02-14T06:58:21;11.60;99.90
24049;DHT22;12250;50.956;4.746;2024-02-14T07:00:47;11.60;99.90
24049;DHT22;12250;50.956;4.746;2024-02-14T07:03:12;11.60;99.90
24049;DHT22;12250;50.956;4.746;2024-02-14T07:05:38;11.60;99.90
24049;DHT22;12250;50.956;4.746;2024-02-14T07:08:05;11.70;99.90
24049;DHT22;12250;50.956;4.746;2024-02-14T07:10:31;11.70;99.90
24049;DHT22;12250;50.956;4.746;2024-02-14T07:12:57;11.80;99.90
24049;DHT22;12250;50.956;4.746;2024-02-14T07:15:23;11.80;99.90
24049;DHT22;12250;50.956;4.746;2024-02-14T07:17:51;11.80;99.90
24049;DHT22;12250;50.956;4.746;2024-02-14T07:20:16;11.80;99.90
24049;DHT22;12250;50.956;4.746;2024-02-14T07:22:43;11.90;99.90
24049;DHT22;12250;50.956;4.746;2024-02-14T07:25:11;12.00;99.90
24049;DHT22;12250;50.956;4.746;2024-02-14T07:27:37;12.10;99.90
24049;DHT22;12250;50.956;4.746;2024-02-14T07:30:03;12.10;99.90
24049;DHT22;12250;50.956;4.746;2024-02-14T07:32:29;12.10;99.90
24049;DHT22;12250;50.956;4.746;2024-02-14T07:34:54;12.10;99.90
24049;DHT22;12250;50.956;4.746;2024-02-14T07:37:20;12.10;99.90
24049;DHT22;12250;50.956;4.746;2024-02-14T07:39:47;12.20;99.90
24049;DHT22;12250;50.956;4.746;2024-02-14T07:42:13;12.20;99.90
24049;DHT22;12250;50.956;4.746;2024-02-14T07:44:39;12.20;99.90
24049;DHT22;12250;50.956;4.746;2024-02-14T07:47:04;12.20;99.90
24049;DHT22;12250;50.956;4.746;2024-02-14T07:49:30;12.30;99.90
24049;DHT22;12250;50.956;4.746;2024-02-14T07:51:56;12.20;99.90
24049;DHT22;12250;50.956;4.746;2024-02-14T07:54:22;12.30;99.90
24049;DHT22;12250;50.956;4.746;2024-02-14T07:56:47;12.40;99.90
24049;DHT22;12250;50.956;4.746;2024-02-14T07:59:13;12.20;99.90
24049;DHT22;12250;50.956;4.746;2024-02-14T08:01:39;12.30;99.90
24049;DHT22;12250;50.956;4.746;2024-02-14T08:04:04;12.30;99.90
24049;DHT22;12250;50.956;4.746;2024-02-14T08:06:30;12.40;99.90
24049;DHT22;12250;50.956;4.746;2024-02-14T08:08:56;12.50;99.90
24049;DHT22;12250;50.956;4.746;2024-02-14T08:11:27;12.60;99.90
24049;DHT22;12250;50.956;4.746;2024-02-14T08:13:53;12.70;99.90
24049;DHT22;12250;50.956;4.746;2024-02-14T08:16:18;12.90;99.90
24049;DHT22;12250;50.956;4.746;2024-02-14T08:18:44;13.10;99.90
24049;DHT22;12250;50.956;4.746;2024-02-14T08:21:10;13.10;99.90
24049;DHT22;12250;50.956;4.746;2024-02-14T08:23:36;13.20;99.90
24049;DHT22;12250;50.956;4.746;2024-02-14T08:26:04;13.10;99.90
24049;DHT22;12250;50.956;4.746;2024-02-14T08:28:36;13.10;99.90
24049;DHT22;12250;50.956;4.746;2024-02-14T08:31:02;13.10;99.90
24049;DHT22;12250;50.956;4.746;2024-02-14T08:33:27;13.10;99.90
24049;DHT22;12250;50.956;4.746;2024-02-14T08:35:53;13.00;99.90
24049;DHT22;12250;50.956;4.746;2024-02-14T08:38:22;13.00;99.90
24049;DHT22;12250;50.956;4.746;2024-02-14T08:40:48;12.90;99.90
24049;DHT22;12250;50.956;4.746;2024-02-14T08:43:14;12.70;99.90
24049;DHT22;12250;50.956;4.746;2024-02-14T08:45:40;12.70;99.90
24049;DHT22;12250;50.956;4.746;2024-02-14T08:48:06;12.60;99.90
24049;DHT22;12250;50.956;4.746;2024-02-14T08:50:32;12.60;99.90
24049;DHT22;12250;50.956;4.746;2024-02-14T08:52:58;12.50;99.90
24049;DHT22;12250;50.956;4.746;2024-02-14T08:55:24;12.60;99.90
24049;DHT22;12250;50.956;4.746;2024-02-14T08:57:49;12.60;99.90
24049;DHT22;12250;50.956;4.746;2024-02-14T09:00:15;12.70;99.90
24049;DHT22;12250;50.956;4.746;2024-02-14T09:02:45;12.70;99.90
24049;DHT22;12250;50.956;4.746;2024-02-14T09:05:12;12.70;99.90
24049;DHT22;12250;50.956;4.746;2024-02-14T09:07:38;12.80;99.90
24049;DHT22;12250;50.956;4.746;2024-02-14T09:10:04;12.80;99.90
24049;DHT22;12250;50.956;4.746;2024-02-14T09:12:31;12.80;99.90
24049;DHT22;12250;50.956;4.746;2024-02-14T09:14:58;12.80;99.90
24049;DHT22;12250;50.956;4.746;2024-02-14T09:17:24;12.80;99.90
24049;DHT22;12250;50.956;4.746;2024-02-14T09:19:50;12.80;99.90
24049;DHT22;12250;50.956;4.746;2024-02-14T09:22:16;12.90;99.90
24049;DHT22;12250;50.956;4.746;2024-02-14T09:24:47;12.90;99.90
24049;DHT22;12250;50.956;4.746;2024-02-14T09:27:13;13.00;99.90
24049;DHT22;12250;50.956;4.746;2024-02-14T09:29:39;12.90;99.90
24049;DHT22;12250;50.956;4.746;2024-02-14T09:32:05;12.90;99.90
24049;DHT22;12250;50.956;4.746;2024-02-14T09:34:31;12.70;99.90
24049;DHT22;12250;50.956;4.746;2024-02-14T09:36:56;12.70;99.90
24049;DHT22;12250;50.956;4.746;2024-02-14T09:39:24;12.70;99.90
24049;DHT22;12250;50.956;4.746;2024-02-14T09:41:52;12.50;99.90
24049;DHT22;12250;50.956;4.746;2024-02-14T09:44:20;12.40;99.90
24049;DHT22;12250;50.956;4.746;2024-02-14T09:46:49;12.40;99.90
24049;DHT22;12250;50.956;4.746;2024-02-14T09:49:16;12.40;99.90
24049;DHT22;12250;50.956;4.746;2024-02-14T09:51:44;12.40;99.90
24049;DHT22;12250;50.956;4.746;2024-02-14T09:54:12;12.50;99.90
24049;DHT22;12250;50.956;4.746;2024-02-14T09:56:39;12.50;99.90
24049;DHT22;12250;50.956;4.746;2024-02-14T09:59:05;12.60;99.90
24049;DHT22;12250;50.956;4.746;2024-02-14T10:01:31;12.70;99.90
24049;DHT22;12250;50.956;4.746;2024-02-14T10:03:57;12.80;99.90
24049;DHT22;12250;50.956;4.746;2024-02-14T10:06:23;12.80;99.90
24049;DHT22;12250;50.956;4.746;2024-02-14T10:08:51;12.80;99.90
24049;DHT22;12250;50.956;4.746;2024-02-14T10:11:19;12.90;99.90
24049;DHT22;12250;50.956;4.746;2024-02-14T10:13:47;12.90;99.90
24049;DHT22;12250;50.956;4.746;2024-02-14T10:16:14;12.90;99.90
24049;DHT22;12250;50.956;4.746;2024-02-14T10:18:40;12.90;99.90
24049;DHT22;12250;50.956;4.746;2024-02-14T10:21:06;12.90;99.90
24049;DHT22;12250;50.956;4.746;2024-02-14T10:23:33;12.90;99.90
24049;DHT22;12250;50.956;4.746;2024-02-14T10:25:59;12.90;99.90
24049;DHT22;12250;50.956;4.746;2024-02-14T10:28:25;12.80;99.90
24049;DHT22;12250;50.956;4.746;2024-02-14T10:30:51;12.70;99.90
24049;DHT22;12250;50.956;4.746;2024-02-14T10:33:20;12.80;99.90
24049;DHT22;12250;50.956;4.746;2024-02-14T10:35:47;12.80;99.90
24049;DHT22;12250;50.956;4.746;2024-02-14T10:38:14;12.90;99.90
24049;DHT22;12250;50.956;4.746;2024-02-14T10:40:41;12.90;99.90
24049;DHT22;12250;50.956;4.746;2024-02-14T10:43:08;13.00;99.90
24049;DHT22;12250;50.956;4.746;2024-02-14T10:45:37;13.00;99.90
24049;DHT22;12250;50.956;4.746;2024-02-14T10:48:04;13.00;99.90
24049;DHT22;12250;50.956;4.746;2024-02-14T10:50:33;13.00;99.90
24049;DHT22;12250;50.956;4.746;2024-02-14T10:53:04;13.00;99.90
24049;DHT22;12250;50.956;4.746;2024-02-14T10:55:31;13.00;99.90
24049;DHT22;12250;50.956;4.746;2024-02-14T10:57:58;13.10;99.90
24049;DHT22;12250;50.956;4.746;2024-02-14T11:00:24;13.20;99.90
24049;DHT22;12250;50.956;4.746;2024-02-14T11:02:51;13.20;99.90
24049;DHT22;12250;50.956;4.746;2024-02-14T11:05:19;13.20;99.90
24049;DHT22;12250;50.956;4.746;2024-02-14T11:07:48;13.20;99.90
24049;DHT22;12250;50.956;4.746;2024-02-14T11:10:16;13.30;99.90
24049;DHT22;12250;50.956;4.746;2024-02-14T11:12:42;13.30;99.90
24049;DHT22;12250;50.956;4.746;2024-02-14T11:15:19;13.30;99.90
24049;DHT22;12250;50.956;4.746;2024-02-14T11:17:45;13.30;99.90
24049;DHT22;12250;50.956;4.746;2024-02-14T11:20:13;13.30;99.90
24049;DHT22;12250;50.956;4.746;2024-02-14T11:22:39;13.40;99.90
24049;DHT22;12250;50.956;4.746;2024-02-14T11:25:14;13.30;99.90
24049;DHT22;12250;50.956;4.746;2024-02-14T11:27:45;13.20;99.90
24049;DHT22;12250;50.956;4.746;2024-02-14T11:30:11;13.20;99.90
24049;DHT22;12250;50.956;4.746;2024-02-14T11:32:37;13.20;99.90
24049;DHT22;12250;50.956;4.746;2024-02-14T11:35:11;13.20;99.90
24049;DHT22;12250;50.956;4.746;2024-02-14T11:37:38;13.20;99.90
24049;DHT22;12250;50.956;4.746;2024-02-14T11:40:04;13.20;99.90
24049;DHT22;12250;50.956;4.746;2024-02-14T11:42:32;13.20;99.90
24049;DHT22;12250;50.956;4.746;2024-02-14T11:44:58;13.20;99.90
24049;DHT22;12250;50.956;4.746;2024-02-14T11:47:24;13.20;99.90
24049;DHT22;12250;50.956;4.746;2024-02-14T11:49:50;13.20;99.90
24049;DHT22;12250;50.956;4.746;2024-02-14T11:52:16;13.10;99.90
24049;DHT22;12250;50.956;4.746;2024-02-14T11:54:46;13.10;99.90
24049;DHT22;12250;50.956;4.746;2024-02-14T11:57:19;13.10;99.90
24049;DHT22;12250;50.956;4.746;2024-02-14T11:59:45;13.10;99.90
24049;DHT22;12250;50.956;4.746;2024-02-14T12:02:14;13.20;99.90
24049;DHT22;12250;50.956;4.746;2024-02-14T12:04:40;13.20;99.90
24049;DHT22;12250;50.956;4.746;2024-02-14T12:07:06;13.30;99.90
24049;DHT22;12250;50.956;4.746;2024-02-14T12:09:31;13.30;99.90
24049;DHT22;12250;50.956;4.746;2024-02-14T12:11:57;13.30;99.90
24049;DHT22;12250;50.956;4.746;2024-02-14T12:14:23;13.30;99.90
24049;DHT22;12250;50.956;4.746;2024-02-14T12:16:59;13.30;99.90
24049;DHT22;12250;50.956;4.746;2024-02-14T12:19:24;13.30;99.90
24049;DHT22;12250;50.956;4.746;2024-02-14T12:21:50;13.30;99.90
24049;DHT22;12250;50.956;4.746;2024-02-14T12:24:16;13.40;99.90
24049;DHT22;12250;50.956;4.746;2024-02-14T12:26:42;13.30;99.90
24049;DHT22;12250;50.956;4.746;2024-02-14T12:29:10;13.40;99.90
24049;DHT22;12250;50.956;4.746;2024-02-14T12:31:36;13.50;99.90
24049;DHT22;12250;50.956;4.746;2024-02-14T12:34:03;13.60;99.90
24049;DHT22;12250;50.956;4.746;2024-02-14T12:36:31;13.60;99.90
24049;DHT22;12250;50.956;4.746;2024-02-14T12:39:01;13.70;99.90
24049;DHT22;12250;50.956;4.746;2024-02-14T12:41:30;13.80;99.90
24049;DHT22;12250;50.956;4.746;2024-02-14T12:43:57;13.90;99.90
24049;DHT22;12250;50.956;4.746;2024-02-14T12:46:23;13.90;99.90
24049;DHT22;12250;50.956;4.746;2024-02-14T12:48:49;13.90;99.90
24049;DHT22;12250;50.956;4.746;2024-02-14T12:51:15;13.80;99.90
24049;DHT22;12250;50.956;4.746;2024-02-14T12:53:41;13.70;99.90
24049;DHT22;12250;50.956;4.746;2024-02-14T12:56:07;13.70;99.90
24049;DHT22;12250;50.956;4.746;2024-02-14T12:58:33;13.60;99.90
24049;DHT22;12250;50.956;4.746;2024-02-14T13:00:59;13.60;99.90
24049;DHT22;12250;50.956;4.746;2024-02-14T13:03:27;13.60;99.90
24049;DHT22;12250;50.956;4.746;2024-02-14T13:05:53;13.50;99.90
24049;DHT22;12250;50.956;4.746;2024-02-14T13:08:20;13.50;99.90
24049;DHT22;12250;50.956;4.746;2024-02-14T13:10:46;13.60;99.90
24049;DHT22;12250;50.956;4.746;2024-02-14T13:13:12;13.60;99.90
24049;DHT22;12250;50.956;4.746;2024-02-14T13:15:39;13.60;99.90
24049;DHT22;12250;50.956;4.746;2024-02-14T13:18:06;13.60;99.90
24049;DHT22;12250;50.956;4.746;2024-02-14T13:20:32;13.50;99.90
24049;DHT22;12250;50.956;4.746;2024-02-14T13:22:57;13.50;99.90
24049;DHT22;12250;50.956;4.746;2024-02-14T13:25:23;13.60;99.90
24049;DHT22;12250;50.956;4.746;2024-02-14T13:27:49;13.60;99.90
24049;DHT22;12250;50.956;4.746;2024-02-14T13:30:15;13.60;99.90
24049;DHT22;12250;50.956;4.746;2024-02-14T13:32:40;13.60;99.90
24049;DHT22;12250;50.956;4.746;2024-02-14T13:35:07;13.60;99.90
24049;DHT22;12250;50.956;4.746;2024-02-14T13:37:33;13.60;99.90
24049;DHT22;12250;50.956;4.746;2024-02-14T13:39:58;13.60;99.90
24049;DHT22;12250;50.956;4.746;2024-02-14T13:42:24;13.60;99.90
24049;DHT22;12250;50.956;4.746;2024-02-14T13:44:50;13.60;99.90
24049;DHT22;12250;50.956;4.746;2024-02-14T13:47:18;13.50;99.90
24049;DHT22;12250;50.956;4.746;2024-02-14T13:49:44;13.50;99.90
24049;DHT22;12250;50.956;4.746;2024-02-14T13:52:10;13.50;99.90
24049;DHT22;12250;50.956;4.746;2024-02-14T13:54:36;13.50;99.90
24049;DHT22;12250;50.956;4.746;2024-02-14T13:57:01;13.50;99.90
24049;DHT22;12250;50.956;4.746;2024-02-14T13:59:28;13.50;99.90
24049;DHT22;12250;50.956;4.746;2024-02-14T14:01:54;13.50;99.90
24049;DHT22;12250;50.956;4.746;2024-02-14T14:04:20;13.50;99.90
24049;DHT22;12250;50.956;4.746;2024-02-14T14:06:46;13.60;99.90
24049;DHT22;12250;50.956;4.746;2024-02-14T14:09:13;13.60;99.90
24049;DHT22;12250;50.956;4.746;2024-02-14T14:11:39;13.60;99.90
24049;DHT22;12250;50.956;4.746;2024-02-14T14:14:05;13.60;99.90
24049;DHT22;12250;50.956;4.746;2024-02-14T14:16:31;13.50;99.90
24049;DHT22;12250;50.956;4.746;2024-02-14T14:18:58;13.40;99.90
24049;DHT22;12250;50.956;4.746;2024-02-14T14:21:24;13.50;99.90
24049;DHT22;12250;50.956;4.746;2024-02-14T14:23:50;13.50;99.90
24049;DHT22;12250;50.956;4.746;2024-02-14T14:26:16;13.60;99.90
24049;DHT22;12250;50.956;4.746;2024-02-14T14:28:41;13.60;99.90
24049;DHT22;12250;50.956;4.746;2024-02-14T14:31:08;13.60;99.90
24049;DHT22;12250;50.956;4.746;2024-02-14T14:33:37;13.70;99.90
24049;DHT22;12250;50.956;4.746;2024-02-14T14:36:04;13.60;99.90
24049;DHT22;12250;50.956;4.746;2024-02-14T14:38:30;13.60;99.90
24049;DHT22;12250;50.956;4.746;2024-02-14T14:40:56;13.60;99.90
24049;DHT22;12250;50.956;4.746;2024-02-14T14:43:22;13.70;99.90
24049;DHT22;12250;50.956;4.746;2024-02-14T14:45:48;13.70;99.90
24049;DHT22;12250;50.956;4.746;2024-02-14T14:48:15;13.80;99.90
24049;DHT22;12250;50.956;4.746;2024-02-14T14:50:41;13.80;99.90
24049;DHT22;12250;50.956;4.746;2024-02-14T14:53:07;13.80;99.90
24049;DHT22;12250;50.956;4.746;2024-02-14T14:55:52;13.90;99.90
24049;DHT22;12250;50.956;4.746;2024-02-14T14:58:19;13.90;99.90
24049;DHT22;12250;50.956;4.746;2024-02-14T15:00:45;13.90;99.90
24049;DHT22;12250;50.956;4.746;2024-02-14T15:03:10;14.00;99.90
24049;DHT22;12250;50.956;4.746;2024-02-14T15:05:38;14.00;99.90
24049;DHT22;12250;50.956;4.746;2024-02-14T15:08:07;14.00;99.90
24049;DHT22;12250;50.956;4.746;2024-02-14T15:10:34;13.90;99.90
24049;DHT22;12250;50.956;4.746;2024-02-14T15:13:00;14.00;99.90
24049;DHT22;12250;50.956;4.746;2024-02-14T15:15:26;14.00;99.90
24049;DHT22;12250;50.956;4.746;2024-02-14T15:17:51;14.10;99.90
24049;DHT22;12250;50.956;4.746;2024-02-14T15:20:17;14.10;99.90
24049;DHT22;12250;50.956;4.746;2024-02-14T15:22:43;14.10;99.90
24049;DHT22;12250;50.956;4.746;2024-02-14T15:25:08;14.10;99.90